Terminal Aerodrome Forecast
Issued by NWS Indianapolis, IN

Home | Current Version | Previous Version | Text Only | Print | Product List | Glossary On
Versions: 1 2 3 4 5 6 7 8 9 10 11 12 13 14 15 16 17 18 19 20 21 22 23 24
761
FTUS43 KIND 181730
TAFIND
TAF
KIND 181730Z 1818/1924 28010KT P6SM SCT035
     FM190000 27005KT P6SM SCT200
     FM190800 VRB03KT P6SM VCSH BKN080
     FM191400 26004KT P6SM BKN030
     FM191800 29009KT P6SM SCT060=

USA.gov is the U.S. government's official web portal to all federal, state and local government web resources and services.